Portada
METAR-TAF:

METAR-TAF

Aeroports :

Sukhothai, Tailàndia

latitud: 17-14-16N, longitud: 099-49-05E, altitud: 55 m

Observació

L'informe es va fer fa 2 hores i 29 minuts, a les 10:00 UTC
Vent 4 kt del Sud/Sud-Est
Temperatura 35°C
Humitat 50%
Pressió 1005 hPa
Visibilitat 10 km o més
Escasses núvols a una alçada de 2500 ft

METAR: VTPO 231000Z 16004KT 9999 FEW025 35/23 Q1005 NOSIG

Hora: 19:29 (12:29 UTC)

Pronòstic

L'informe es va fer fa 1 hora i 29 minuts, a les 11:00 UTC
Pronòstic vàlid del 23 a les 12 UTC al 24 a les 12 UTC
Vent 5 kt del Sud/Sud-Est
Visibilitat 10 km o més
Escasses núvols a una alçada de 2500 ft
Evolucionant progressivament
l' 23 a les 21 UTC al 23 a les 23 UTC
Visibilitat: 4000 m
boirina
Evolucionant progressivament
l' 24 a les 01 UTC al 24 a les 03 UTC
Visibilitat 10 km o més

TAF: VTPO 231100Z 2312/2412 16005KT 9999 FEW025 BECMG 2321/2323 4000 BR BECMG 2401/2403 9999 NSW

Observacions i pronòstics meteorològics de més de 4000 aeroports (METAR i TAF).

Les estacions disponibles són els punts grocs i vermells al mapa.

Posi el ratolí al punt desitjat per veure el nom de l'estació.

Feu clic per veure les observacions i els pronòstics meteorològics.

Per canviar el mapa: feu clic els botons verds amb una creu de color negre per apropar; al botó verd amb un guió per allunyar la imatge; o en les fletxes verdes per a mapes adjacents.


METAR-TAF: